createdAt,value
2019-01-13T00:01:01.523Z,1.40
2019-01-13T00:06:03.114Z,1.40
2019-01-13T00:11:06.420Z,1.40
2019-01-13T00:16:06.121Z,1.40
2019-01-13T00:21:02.855Z,1.40
2019-01-13T00:25:59.270Z,1.40
2019-01-13T00:30:55.240Z,1.40
2019-01-13T00:35:53.055Z,1.40
2019-01-13T00:40:49.070Z,1.40
2019-01-13T00:45:45.189Z,1.40
2019-01-13T00:50:41.128Z,1.40
2019-01-13T00:55:37.486Z,1.40
2019-01-13T01:00:33.658Z,1.40
2019-01-13T01:05:30.682Z,1.40
2019-01-13T01:10:28.648Z,1.40
2019-01-13T01:15:27.139Z,1.40
2019-01-13T01:20:23.063Z,1.40
2019-01-13T01:25:19.534Z,1.50
2019-01-13T01:30:20.236Z,1.50
2019-01-13T01:35:19.344Z,1.50
2019-01-13T01:40:23.378Z,1.50
2019-01-13T01:46:21.045Z,1.50
2019-01-13T01:51:23.007Z,1.50
2019-01-13T01:56:24.767Z,1.60
2019-01-13T02:01:27.016Z,1.60
2019-01-13T02:06:40.752Z,1.60
2019-01-13T02:11:41.961Z,1.60
2019-01-13T02:16:50.286Z,1.60
2019-01-13T02:21:47.660Z,1.60
2019-01-13T02:26:44.748Z,1.70
2019-01-13T02:31:44.993Z,1.70
2019-01-13T02:36:42.800Z,1.70
2019-01-13T02:41:39.370Z,1.60
2019-01-13T02:46:35.346Z,1.70
2019-01-13T02:51:32.285Z,1.60
2019-01-13T02:57:32.482Z,1.60
2019-01-13T03:03:01.106Z,1.70
2019-01-13T03:07:45.564Z,1.70
2019-01-13T03:12:41.776Z,1.70
2019-01-13T03:17:37.764Z,1.70
2019-01-13T03:22:33.961Z,1.70
2019-01-13T03:27:30.413Z,1.70
2019-01-13T03:32:26.364Z,1.70
2019-01-13T03:37:22.242Z,1.70
2019-01-13T03:42:18.194Z,1.70
2019-01-13T03:47:14.377Z,1.70
2019-01-13T03:52:23.988Z,1.80
2019-01-13T03:57:28.357Z,1.70
2019-01-13T04:02:24.230Z,1.80
2019-01-13T04:07:41.978Z,1.80
2019-01-13T04:12:59.578Z,1.80
2019-01-13T04:18:13.638Z,1.70
2019-01-13T04:23:51.348Z,1.80
2019-01-13T04:34:40.343Z,1.80
2019-01-13T04:40:20.600Z,1.80
2019-01-13T04:46:02.112Z,1.80
2019-01-13T04:51:45.777Z,1.90
2019-01-13T04:56:27.144Z,1.90
2019-01-13T05:01:23.007Z,1.80
2019-01-13T05:06:34.483Z,1.90
2019-01-13T05:11:57.849Z,1.90
2019-01-13T05:17:33.959Z,1.90
2019-01-13T05:23:16.385Z,1.90
2019-01-13T05:29:14.716Z,1.90
2019-01-13T05:34:05.002Z,1.90
2019-01-13T05:39:01.425Z,1.90
2019-01-13T05:44:17.334Z,1.90
2019-01-13T05:49:41.278Z,1.90
2019-01-13T05:55:27.923Z,2.00
2019-01-13T06:00:42.196Z,2.00
2019-01-13T06:06:03.587Z,2.10
2019-01-13T06:11:30.556Z,2.00
2019-01-13T06:17:29.327Z,2.10
2019-01-13T06:23:35.933Z,2.10
2019-01-13T06:29:19.367Z,2.10
2019-01-13T06:35:45.819Z,2.10
2019-01-13T07:04:47.367Z,2.10
2019-01-13T07:21:22.068Z,2.20
2019-01-13T07:26:17.914Z,2.20
2019-01-13T07:31:14.030Z,2.20
2019-01-13T07:36:12.823Z,2.30
2019-01-13T07:41:08.695Z,2.30
2019-01-13T07:46:04.518Z,2.30
2019-01-13T07:51:03.130Z,2.40
2019-01-13T07:55:59.175Z,2.40
2019-01-13T08:00:55.384Z,2.40
2019-01-13T08:05:54.895Z,2.40
2019-01-13T08:10:51.488Z,2.40
2019-01-13T08:15:49.192Z,2.50
2019-01-13T08:20:53.344Z,2.40
2019-01-13T08:26:10.463Z,2.40
2019-01-13T08:31:10.749Z,2.30
2019-01-13T08:36:09.176Z,2.30
2019-01-13T08:41:06.106Z,2.20
2019-01-13T08:46:04.477Z,2.20
2019-01-13T08:51:03.202Z,2.10
2019-01-13T08:56:03.328Z,2.10
2019-01-13T09:00:59.439Z,2.10
2019-01-13T09:05:58.527Z,2.10
2019-01-13T09:11:00.650Z,2.20
2019-01-13T09:15:58.370Z,2.20
2019-01-13T09:20:58.886Z,2.20
2019-01-13T09:26:12.581Z,2.20
2019-01-13T09:31:16.324Z,2.20
2019-01-13T09:36:12.497Z,2.20
2019-01-13T09:41:08.496Z,2.20
2019-01-13T09:46:09.655Z,2.20
2019-01-13T09:51:05.293Z,2.30
2019-01-13T09:56:25.984Z,2.30
2019-01-13T10:01:51.494Z,2.20
2019-01-13T10:07:26.374Z,2.20
2019-01-13T10:13:03.612Z,2.30
2019-01-13T10:24:17.115Z,2.30
2019-01-13T10:29:20.314Z,2.30
2019-01-13T10:40:27.441Z,2.40
2019-01-13T10:45:45.247Z,2.40
2019-01-13T10:50:50.486Z,2.40
2019-01-13T10:56:02.943Z,2.40
2019-01-13T11:01:18.856Z,2.40
2019-01-13T11:06:27.493Z,2.40
2019-01-13T11:11:33.055Z,2.40
2019-01-13T11:16:41.534Z,2.40
2019-01-13T11:23:12.144Z,2.40
2019-01-13T11:28:15.585Z,2.30
2019-01-13T11:33:17.271Z,2.30
2019-01-13T11:38:19.997Z,2.30
2019-01-13T11:55:01.417Z,2.40
2019-01-13T12:00:10.697Z,2.40
2019-01-13T12:05:07.958Z,2.50
2019-01-13T12:10:03.953Z,2.50
2019-01-13T12:15:00.331Z,2.50
2019-01-13T12:19:56.172Z,2.50
2019-01-13T12:24:55.481Z,2.50
2019-01-13T12:29:51.673Z,2.50
2019-01-13T12:34:50.566Z,2.50
2019-01-13T12:39:46.573Z,2.60
2019-01-13T12:44:51.871Z,2.60
2019-01-13T12:49:52.213Z,2.70
2019-01-13T12:54:53.668Z,2.80
2019-01-13T12:59:52.315Z,2.80
2019-01-13T13:04:53.338Z,2.80
2019-01-13T13:09:49.535Z,2.90
2019-01-13T13:14:56.762Z,3.00
2019-01-13T13:19:59.335Z,3.00
2019-01-13T13:25:04.539Z,3.00
2019-01-13T13:30:01.642Z,3.10
2019-01-13T13:34:57.471Z,3.20
2019-01-13T13:40:03.030Z,3.10
2019-01-13T13:45:02.577Z,3.20
2019-01-13T13:49:59.210Z,3.20
2019-01-13T13:54:57.443Z,3.20
2019-01-13T13:59:53.530Z,3.20
2019-01-13T14:05:16.914Z,3.20
2019-01-13T14:10:24.026Z,3.20
2019-01-13T14:15:20.063Z,3.20
2019-01-13T14:20:18.034Z,3.30
2019-01-13T14:25:31.854Z,3.30
2019-01-13T14:30:32.099Z,3.30
2019-01-13T14:35:46.451Z,3.40
2019-01-13T14:41:07.057Z,3.40
2019-01-13T14:45:59.754Z,3.40
2019-01-13T14:51:21.389Z,3.40
2019-01-13T14:56:17.481Z,3.40
2019-01-13T15:01:41.847Z,3.40
2019-01-13T15:12:53.487Z,3.50
2019-01-13T15:17:52.179Z,3.60
2019-01-13T15:22:52.760Z,3.60
2019-01-13T15:27:59.428Z,3.60
2019-01-13T15:32:55.188Z,3.70
2019-01-13T15:38:40.478Z,3.70
2019-01-13T15:44:07.863Z,3.70
2019-01-13T15:49:27.036Z,3.80
2019-01-13T16:06:41.965Z,4.00
2019-01-13T16:17:05.467Z,4.00
2019-01-13T16:22:01.761Z,4.00
2019-01-13T16:26:58.726Z,4.10
2019-01-13T16:31:59.423Z,4.00
2019-01-13T16:36:55.629Z,4.00
2019-01-13T16:42:37.468Z,4.10
2019-01-13T16:48:40.225Z,4.10
2019-01-13T16:53:54.486Z,4.10
2019-01-13T16:59:31.302Z,4.10
2019-01-13T17:04:36.598Z,4.10
2019-01-13T17:09:35.412Z,4.20
2019-01-13T17:20:21.793Z,4.30
2019-01-13T17:36:52.913Z,4.30
2019-01-13T17:38:19.133Z,4.40
2019-01-13T17:43:15.155Z,4.40
2019-01-13T17:48:20.138Z,4.40
2019-01-13T17:53:20.007Z,4.50
2019-01-13T17:58:20.267Z,4.50
2019-01-13T18:03:32.420Z,4.40
2019-01-13T18:08:28.439Z,4.40
2019-01-13T18:13:48.673Z,4.40
2019-01-13T18:18:44.358Z,4.40
2019-01-13T18:23:40.706Z,4.40
2019-01-13T18:28:36.683Z,4.40
2019-01-13T18:33:41.649Z,4.50
2019-01-13T18:38:40.554Z,4.50
2019-01-13T18:43:49.076Z,4.50
2019-01-13T18:48:49.861Z,4.50
2019-01-13T18:53:58.968Z,4.50
2019-01-13T18:58:57.420Z,4.60
2019-01-13T19:04:00.225Z,4.50
2019-01-13T19:08:57.075Z,4.50
2019-01-13T19:14:49.578Z,4.50
2019-01-13T19:20:32.457Z,4.60
2019-01-13T19:25:38.306Z,4.60
2019-01-13T19:30:42.750Z,4.60
2019-01-13T19:42:18.602Z,4.60
2019-01-13T19:47:32.866Z,4.70
2019-01-13T19:52:49.365Z,4.70
2019-01-13T19:58:08.165Z,4.80
2019-01-13T20:03:10.782Z,4.80
2019-01-13T20:08:15.281Z,4.80
2019-01-13T20:13:23.752Z,4.80
2019-01-13T20:18:35.466Z,4.80
2019-01-13T20:23:46.025Z,4.90
2019-01-13T20:28:44.937Z,4.90
2019-01-13T20:33:40.797Z,4.90
2019-01-13T20:38:37.148Z,5.00
2019-01-13T20:43:33.260Z,4.90
2019-01-13T20:48:29.582Z,5.00
2019-01-13T20:53:26.507Z,5.00
2019-01-13T20:58:35.645Z,4.90
2019-01-13T21:03:31.932Z,4.90
2019-01-13T21:08:28.043Z,4.80
2019-01-13T21:13:25.337Z,4.80
2019-01-13T21:18:57.057Z,4.80
2019-01-13T21:23:56.545Z,4.70
2019-01-13T21:28:54.201Z,4.80
2019-01-13T21:33:51.677Z,4.80
2019-01-13T21:39:02.023Z,4.90
2019-01-13T21:43:58.339Z,4.90
2019-01-13T21:48:56.370Z,5.00
2019-01-13T21:53:55.562Z,4.90
2019-01-13T21:58:51.542Z,5.00
2019-01-13T22:03:47.582Z,5.00
2019-01-13T22:08:43.649Z,5.10
2019-01-13T22:13:39.619Z,5.20
2019-01-13T22:18:37.498Z,5.30
2019-01-13T22:23:37.177Z,5.40
2019-01-13T22:28:33.288Z,5.50
2019-01-13T22:33:31.637Z,5.50
2019-01-13T22:38:28.928Z,5.30
2019-01-13T22:43:34.264Z,5.20
2019-01-13T22:48:36.336Z,5.10
2019-01-13T22:53:45.762Z,5.00
2019-01-13T22:58:52.045Z,5.10
2019-01-13T23:03:50.639Z,5.10
2019-01-13T23:08:50.868Z,5.10
2019-01-13T23:13:53.618Z,5.10
2019-01-13T23:18:50.601Z,5.10
2019-01-13T23:23:49.652Z,5.10
2019-01-13T23:28:45.759Z,5.10
2019-01-13T23:33:42.117Z,5.10
2019-01-13T23:38:38.046Z,5.10
2019-01-13T23:43:34.086Z,5.10
2019-01-13T23:48:29.894Z,5.10
2019-01-13T23:53:25.815Z,5.00
2019-01-13T23:58:21.767Z,5.00
